createdAt,value
2023-03-05T01:58:37.204Z,64.77
2023-03-05T01:59:37.164Z,64.56
2023-03-05T02:00:37.003Z,64.56
2023-03-05T02:01:36.292Z,64.36
2023-03-05T02:02:37.093Z,64.56
2023-03-05T02:03:36.306Z,64.36
2023-03-05T02:04:37.326Z,64.32
2023-03-05T02:05:36.856Z,64.43
2023-03-05T02:06:36.271Z,64.46
2023-03-05T02:07:36.973Z,64.87
2023-03-05T02:08:36.970Z,64.67
2023-03-05T02:09:36.882Z,64.53
2023-03-05T02:10:37.213Z,64.56
2023-03-05T02:11:36.882Z,64.84
2023-03-05T02:12:37.074Z,63.92
2023-03-05T02:13:36.913Z,63.92
2023-03-05T02:14:37.188Z,63.92
2023-03-05T02:15:36.855Z,64.23
2023-03-05T02:16:36.922Z,64.32
2023-03-05T02:17:36.097Z,64.23
2023-03-05T02:18:36.945Z,64.12
2023-03-05T02:19:36.858Z,64.23
2023-03-05T02:20:36.765Z,64.87
2023-03-05T02:21:36.906Z,64.87
2023-03-05T02:22:36.699Z,64.77
2023-03-05T02:23:36.818Z,64.87
2023-03-05T02:24:36.830Z,64.36
2023-03-05T02:25:36.846Z,65.19
2023-03-05T02:26:36.729Z,64.77
2023-03-05T02:27:36.779Z,64.77
2023-03-05T02:28:36.756Z,65.08
2023-03-05T02:29:36.869Z,64.87
2023-03-05T02:30:36.725Z,65.08
2023-03-05T02:31:36.611Z,64.87
2023-03-05T02:32:36.831Z,65.19
2023-03-05T02:33:36.608Z,64.77
2023-03-05T02:34:36.917Z,64.98
2023-03-05T02:35:36.660Z,65.53
2023-03-05T02:36:36.674Z,65.94
2023-03-05T02:37:36.551Z,66.35
2023-03-05T02:38:36.724Z,66.66
2023-03-05T02:39:36.605Z,66.87
2023-03-05T02:40:36.646Z,66.66
2023-03-05T02:41:36.667Z,66.87
2023-03-05T02:42:36.729Z,65.91
2023-03-05T02:43:36.595Z,65.70
2023-03-05T02:44:36.815Z,65.81
2023-03-05T02:45:36.605Z,65.84
2023-03-05T02:46:36.654Z,66.15
2023-03-05T02:47:36.778Z,65.94
2023-03-05T02:48:36.386Z,65.73
2023-03-05T02:49:36.592Z,66.22
2023-03-05T02:50:36.376Z,65.60
2023-03-05T02:51:36.616Z,65.19
2023-03-05T02:52:36.417Z,65.73
2023-03-05T02:53:36.617Z,66.46
2023-03-05T02:54:36.377Z,66.46
2023-03-05T02:55:36.661Z,66.46
2023-03-05T02:56:36.398Z,66.46
2023-03-05T02:57:36.536Z,66.56
2023-03-05T02:58:36.377Z,66.15
2023-03-05T02:59:36.578Z,65.70
2023-03-05T03:00:36.365Z,64.87
2023-03-05T03:01:36.513Z,65.08
2023-03-05T03:02:36.377Z,64.95
2023-03-05T03:03:36.330Z,64.53
2023-03-05T03:04:36.412Z,64.74
2023-03-05T03:05:36.293Z,64.43
2023-03-05T03:06:36.447Z,64.64
2023-03-05T03:07:36.236Z,64.64
2023-03-05T03:08:35.608Z,64.64
2023-03-05T03:09:36.248Z,64.95
2023-03-05T03:10:36.349Z,64.74
2023-03-05T03:11:36.297Z,65.19
2023-03-05T03:12:36.426Z,65.81
2023-03-05T03:13:36.216Z,66.32
2023-03-05T03:14:36.423Z,66.32
2023-03-05T03:15:36.227Z,66.12
2023-03-05T03:16:36.456Z,66.42
2023-03-05T03:17:36.347Z,66.22
2023-03-05T03:18:36.111Z,66.12
2023-03-05T03:19:36.431Z,66.32
2023-03-05T03:20:36.091Z,66.02
2023-03-05T03:21:36.221Z,66.02
2023-03-05T03:22:36.072Z,65.91
2023-03-05T03:23:36.309Z,66.22
2023-03-05T03:24:36.122Z,66.02
2023-03-05T03:25:36.211Z,65.70
2023-03-05T03:26:36.170Z,65.60
2023-03-05T03:27:36.301Z,66.02
2023-03-05T03:28:36.082Z,64.95
2023-03-05T03:29:36.235Z,64.64
2023-03-05T03:30:36.163Z,65.60
2023-03-05T03:31:36.231Z,65.26
2023-03-05T03:32:36.213Z,64.64
2023-03-05T03:33:36.182Z,64.84
2023-03-05T03:34:36.157Z,64.32
2023-03-05T03:35:35.927Z,64.53
2023-03-05T03:36:36.106Z,64.53
2023-03-05T03:37:35.915Z,64.74
2023-03-05T03:38:36.105Z,64.43
2023-03-05T03:39:35.922Z,64.40
2023-03-05T03:40:36.162Z,64.32
2023-03-05T03:41:35.984Z,64.64
2023-03-05T03:42:36.151Z,64.64
2023-03-05T03:43:36.032Z,64.95
2023-03-05T03:44:36.053Z,64.64
2023-03-05T03:45:35.939Z,64.32
2023-03-05T03:46:36.070Z,64.12
2023-03-05T03:47:35.933Z,64.56
2023-03-05T03:48:36.200Z,65.50
2023-03-05T03:49:36.005Z,64.84
2023-03-05T03:50:35.962Z,64.84
2023-03-05T03:51:36.053Z,64.64
2023-03-05T03:52:35.853Z,64.32
2023-03-05T03:53:35.956Z,63.81
2023-03-05T03:54:35.945Z,64.32
2023-03-05T03:55:35.922Z,64.53
2023-03-05T03:56:35.765Z,64.12
2023-03-05T03:57:35.989Z,64.67
2023-03-05T03:58:35.824Z,65.08
2023-03-05T03:59:36.103Z,65.08
2023-03-05T04:00:35.845Z,64.87
2023-03-05T04:01:35.867Z,64.87
2023-03-05T04:02:35.823Z,65.39
2023-03-05T04:03:35.884Z,65.50
2023-03-05T04:04:35.900Z,65.19
2023-03-05T04:05:35.051Z,64.74
2023-03-05T04:06:35.965Z,64.09
2023-03-05T04:07:35.018Z,64.20
2023-03-05T04:08:35.820Z,63.78
2023-03-05T04:09:35.813Z,64.12
2023-03-05T04:10:35.777Z,64.67
2023-03-05T04:11:34.997Z,64.98
2023-03-05T04:12:35.836Z,64.84
2023-03-05T04:13:35.684Z,64.12
2023-03-05T04:14:35.736Z,64.02
2023-03-05T04:15:35.613Z,64.67
2023-03-05T04:16:35.932Z,65.19
2023-03-05T04:17:35.614Z,65.50
2023-03-05T04:18:34.886Z,65.39
2023-03-05T04:19:35.705Z,65.19
2023-03-05T04:20:35.684Z,65.39
2023-03-05T04:21:35.657Z,65.29
2023-03-05T04:22:35.415Z,65.26
2023-03-05T04:23:35.846Z,64.74
2023-03-05T04:24:34.843Z,65.05
2023-03-05T04:25:35.694Z,65.08
2023-03-05T04:26:35.469Z,65.39
2023-03-05T04:27:35.643Z,65.50
2023-03-05T04:28:35.423Z,65.39
2023-03-05T04:29:35.634Z,65.39
2023-03-05T04:30:35.551Z,65.39
2023-03-05T04:31:35.571Z,65.57
2023-03-05T04:32:35.656Z,64.95
2023-03-05T04:33:35.590Z,65.05
2023-03-05T04:34:35.498Z,64.43
2023-03-05T04:35:35.527Z,64.84
2023-03-05T04:36:35.567Z,64.67
2023-03-05T04:37:35.318Z,65.39
2023-03-05T04:38:35.452Z,65.60
2023-03-05T04:39:35.279Z,66.02
2023-03-05T04:40:35.480Z,65.84
2023-03-05T04:41:35.337Z,66.66
2023-03-05T04:42:35.669Z,66.35
2023-03-05T04:43:35.276Z,66.56
2023-03-05T04:44:35.467Z,66.56
2023-03-05T04:45:35.385Z,66.66
2023-03-05T04:46:35.577Z,66.77
2023-03-05T04:47:35.505Z,66.77
2023-03-05T04:48:35.483Z,67.00
2023-03-05T04:49:35.278Z,67.42
2023-03-05T04:50:35.488Z,67.63
2023-03-05T04:51:35.266Z,67.21
2023-03-05T04:52:35.366Z,67.63
2023-03-05T04:53:35.295Z,67.52
2023-03-05T04:54:35.174Z,67.42
2023-03-05T04:55:35.855Z,67.73
2023-03-05T04:56:35.255Z,67.52
2023-03-05T04:57:35.334Z,67.42
2023-03-05T04:58:35.165Z,67.83
2023-03-05T04:59:35.256Z,67.63
2023-03-05T05:00:35.168Z,67.73
2023-03-05T05:01:35.323Z,68.04
2023-03-05T05:02:35.182Z,67.73
2023-03-05T05:03:35.377Z,67.83
2023-03-05T05:04:35.116Z,67.83
2023-03-05T05:05:35.226Z,68.59
2023-03-05T05:06:35.127Z,68.28
2023-03-05T05:07:35.188Z,68.80
2023-03-05T05:08:35.255Z,68.49
2023-03-05T05:09:35.020Z,68.38
2023-03-05T05:10:35.177Z,68.80
2023-03-05T05:11:34.946Z,68.59
2023-03-05T05:12:35.158Z,68.90
2023-03-05T05:13:34.940Z,68.90
2023-03-05T05:14:35.359Z,68.80
2023-03-05T05:15:35.039Z,68.38
2023-03-05T05:16:35.204Z,68.59
2023-03-05T05:17:34.925Z,68.66
2023-03-05T05:18:35.109Z,68.25
2023-03-05T05:19:35.018Z,68.15
2023-03-05T05:20:35.146Z,68.25
2023-03-05T05:21:35.007Z,68.04
2023-03-05T05:22:35.070Z,68.46
2023-03-05T05:23:35.037Z,68.46
2023-03-05T05:24:34.826Z,68.56
2023-03-05T05:25:34.977Z,68.38
2023-03-05T05:26:34.811Z,68.46
2023-03-05T05:27:34.959Z,68.04
2023-03-05T05:28:34.900Z,67.94
2023-03-05T05:29:34.945Z,68.15
2023-03-05T05:30:34.828Z,68.25
2023-03-05T05:31:35.052Z,67.73
2023-03-05T05:32:34.932Z,68.15
2023-03-05T05:33:34.900Z,67.63
2023-03-05T05:34:34.905Z,68.35
2023-03-05T05:35:34.907Z,67.60
2023-03-05T05:36:34.782Z,67.29
2023-03-05T05:37:34.890Z,67.49
2023-03-05T05:38:34.840Z,67.60
2023-03-05T05:39:35.011Z,66.97
2023-03-05T05:40:34.791Z,67.52
2023-03-05T05:41:34.657Z,67.80
2023-03-05T05:42:34.837Z,67.29
2023-03-05T05:43:34.618Z,67.70
2023-03-05T05:44:34.906Z,67.08
2023-03-05T05:45:34.857Z,67.08
2023-03-05T05:46:34.864Z,67.15
2023-03-05T05:47:34.637Z,67.15
2023-03-05T05:48:34.854Z,66.84
2023-03-05T05:49:34.704Z,66.42
2023-03-05T05:50:34.793Z,66.63
2023-03-05T05:51:34.647Z,66.53
2023-03-05T05:52:34.740Z,66.63
2023-03-05T05:53:34.665Z,66.84
2023-03-05T05:54:34.732Z,67.15
2023-03-05T05:55:35.058Z,67.29
2023-03-05T05:56:34.555Z,67.91
2023-03-05T05:57:34.646Z,68.04
2023-03-05T05:58:34.905Z,68.04
2023-03-05T05:59:34.674Z,68.04
2023-03-05T06:00:34.512Z,68.35
2023-03-05T06:01:34.758Z,68.15
2023-03-05T06:02:34.482Z,68.46
2023-03-05T06:03:34.730Z,69.42
2023-03-05T06:04:33.834Z,69.73
2023-03-05T06:05:34.602Z,68.98
2023-03-05T06:06:34.553Z,68.43
2023-03-05T06:07:34.644Z,68.22
2023-03-05T06:08:34.614Z,67.70
2023-03-05T06:09:34.776Z,67.49
2023-03-05T06:10:34.524Z,68.12
2023-03-05T06:11:34.513Z,67.80
2023-03-05T06:12:34.487Z,67.91
2023-03-05T06:13:34.404Z,67.77
2023-03-05T06:14:34.537Z,68.01
2023-03-05T06:15:34.372Z,67.80
2023-03-05T06:16:34.695Z,68.32
2023-03-05T06:17:34.433Z,68.22
2023-03-05T06:18:34.583Z,68.63
2023-03-05T06:19:34.295Z,68.43
2023-03-05T06:20:34.459Z,68.12
2023-03-05T06:21:34.363Z,68.01
2023-03-05T06:22:34.448Z,68.32
2023-03-05T06:23:34.537Z,68.22
2023-03-05T06:24:34.513Z,67.88
2023-03-05T06:25:34.343Z,67.88
2023-03-05T06:26:34.526Z,67.91
2023-03-05T06:27:34.336Z,68.01
2023-03-05T06:28:34.203Z,68.12
2023-03-05T06:29:34.343Z,68.22
2023-03-05T06:30:34.206Z,68.63
2023-03-05T06:31:36.903Z,68.74
2023-03-05T06:32:34.438Z,68.53
2023-03-05T06:33:34.327Z,68.84
2023-03-05T06:34:34.187Z,68.63
2023-03-05T06:35:34.336Z,68.19
2023-03-05T06:36:34.163Z,68.29
2023-03-05T06:37:34.363Z,68.22
2023-03-05T06:38:34.152Z,69.15
2023-03-05T06:39:34.371Z,68.94
2023-03-05T06:40:34.205Z,68.94
2023-03-05T06:41:34.244Z,69.15
2023-03-05T06:42:34.283Z,69.15
2023-03-05T06:43:34.215Z,69.39
2023-03-05T06:44:34.224Z,69.35
2023-03-05T06:45:34.035Z,69.04
2023-03-05T06:46:34.396Z,68.84
2023-03-05T06:47:34.084Z,68.94
2023-03-05T06:48:33.703Z,69.15
2023-03-05T06:49:34.023Z,69.60
2023-03-05T06:50:34.194Z,69.77
2023-03-05T06:51:33.994Z,69.56
2023-03-05T06:52:34.183Z,68.94
2023-03-05T06:53:34.062Z,69.15
2023-03-05T06:54:34.183Z,69.46
2023-03-05T06:55:34.213Z,69.25
2023-03-05T06:56:34.122Z,69.25
2023-03-05T06:57:33.289Z,68.70
2023-03-05T06:58:34.065Z,68.49
2023-03-05T06:59:34.075Z,68.49
2023-03-05T07:00:33.833Z,68.70
2023-03-05T07:01:34.151Z,69.01
2023-03-05T07:02:34.008Z,68.80
2023-03-05T07:03:33.212Z,68.60
2023-03-05T07:04:33.865Z,68.40
2023-03-05T07:05:34.927Z,68.40
2023-03-05T07:06:34.084Z,68.19
2023-03-05T07:07:33.995Z,68.40
2023-03-05T07:08:33.842Z,68.29
2023-03-05T07:09:34.011Z,68.49
2023-03-05T07:10:33.887Z,68.26
2023-03-05T07:11:34.075Z,67.95
2023-03-05T07:12:33.902Z,68.15
2023-03-05T07:13:33.887Z,67.74
2023-03-05T07:14:34.093Z,67.50
2023-03-05T07:15:33.696Z,67.09
2023-03-05T07:16:33.899Z,67.09
2023-03-05T07:17:33.772Z,67.50
2023-03-05T07:18:33.965Z,67.71
2023-03-05T07:19:33.693Z,67.40
2023-03-05T07:20:33.905Z,67.09
2023-03-05T07:21:33.765Z,66.96
2023-03-05T07:22:33.872Z,66.13
2023-03-05T07:23:33.884Z,66.23
2023-03-05T07:24:33.841Z,66.78
2023-03-05T07:25:33.772Z,67.30
2023-03-05T07:26:34.392Z,66.99
2023-03-05T07:27:33.673Z,67.09
2023-03-05T07:28:33.043Z,67.19
2023-03-05T07:29:34.269Z,67.30
2023-03-05T07:30:33.982Z,66.88
2023-03-05T07:31:32.947Z,66.99
2023-03-05T07:32:33.582Z,67.06
2023-03-05T07:33:33.868Z,66.85
2023-03-05T07:34:33.622Z,66.64
2023-03-05T07:35:33.173Z,66.00
2023-03-05T07:36:33.554Z,65.58
2023-03-05T07:37:33.793Z,66.03
2023-03-05T07:38:33.536Z,66.20
2023-03-05T07:39:33.692Z,66.10
2023-03-05T07:40:33.742Z,65.79
2023-03-05T07:41:33.633Z,66.13
2023-03-05T07:42:33.647Z,66.54
2023-03-05T07:43:33.634Z,66.44
2023-03-05T07:44:33.513Z,66.33
2023-03-05T07:45:32.813Z,66.33
2023-03-05T07:46:33.665Z,66.00
2023-03-05T07:47:33.323Z,65.69
2023-03-05T07:48:33.565Z,65.79
2023-03-05T07:49:33.497Z,65.48
2023-03-05T07:50:32.765Z,65.79
2023-03-05T07:51:33.416Z,65.37
2023-03-05T07:52:33.626Z,65.03
2023-03-05T07:53:33.354Z,64.93
2023-03-05T07:54:33.524Z,64.96
2023-03-05T07:55:34.742Z,65.69
2023-03-05T07:56:41.383Z,65.24
2023-03-05T07:57:35.391Z,64.83
2023-03-05T07:58:34.315Z,64.73
2023-03-05T07:59:33.390Z,64.49
2023-03-05T08:00:33.464Z,64.07
2023-03-05T08:01:34.444Z,64.11
2023-03-05T08:02:33.688Z,64.21
2023-03-05T08:03:34.204Z,64.07
2023-03-05T08:04:34.232Z,64.31
2023-03-05T08:05:34.525Z,65.14
2023-03-05T08:06:35.695Z,65.06
2023-03-05T08:07:33.583Z,64.83
2023-03-05T08:08:33.319Z,64.39
2023-03-05T08:09:33.564Z,63.67
2023-03-05T08:10:33.285Z,63.77
2023-03-05T08:11:33.447Z,63.74
2023-03-05T08:12:33.285Z,64.04
2023-03-05T08:13:33.340Z,63.64
2023-03-05T08:14:33.234Z,63.40
2023-03-05T08:15:33.617Z,63.19
2023-03-05T08:16:33.218Z,62.99
2023-03-05T08:17:33.503Z,62.99
2023-03-05T08:18:33.231Z,62.88
2023-03-05T08:19:33.288Z,62.57
2023-03-05T08:20:33.319Z,62.78
2023-03-05T08:21:33.082Z,62.65
2023-03-05T08:22:33.226Z,62.57
2023-03-05T08:23:33.053Z,62.78
2023-03-05T08:24:33.261Z,62.65
2023-03-05T08:25:33.132Z,61.93
2023-03-05T08:26:33.706Z,62.37
2023-03-05T08:27:32.515Z,62.34
2023-03-05T08:28:34.448Z,61.72
2023-03-05T08:29:33.234Z,61.52
2023-03-05T08:30:33.125Z,61.72
2023-03-05T08:31:33.130Z,61.41
2023-03-05T08:32:33.116Z,61.21
2023-03-05T08:33:35.273Z,61.21
2023-03-05T08:34:32.890Z,61.00
2023-03-05T08:35:32.296Z,61.31
2023-03-05T08:36:32.882Z,61.31
2023-03-05T08:37:33.556Z,61.10
2023-03-05T08:38:33.017Z,60.66
2023-03-05T08:39:33.009Z,60.25
2023-03-05T08:40:32.953Z,60.69
2023-03-05T08:41:33.087Z,60.79
2023-03-05T08:42:32.906Z,60.17
2023-03-05T08:43:33.100Z,60.79
2023-03-05T08:44:32.894Z,60.89
2023-03-05T08:45:33.053Z,60.69
2023-03-05T08:46:33.015Z,61.41
2023-03-05T08:47:32.694Z,60.59
2023-03-05T08:48:32.906Z,60.89
2023-03-05T08:49:32.803Z,60.89
2023-03-05T08:50:33.136Z,60.25
2023-03-05T08:51:32.743Z,59.94
2023-03-05T08:52:32.894Z,59.84
2023-03-05T08:53:32.943Z,59.63
2023-03-05T08:54:32.857Z,59.53
2023-03-05T08:55:32.821Z,60.07
2023-03-05T08:56:32.924Z,60.17
2023-03-05T08:57:32.833Z,59.94
2023-03-05T08:58:32.829Z,60.35
2023-03-05T08:59:32.719Z,59.30
2023-03-05T09:00:32.896Z,58.89
2023-03-05T09:01:32.796Z,58.89
2023-03-05T09:02:33.045Z,59.09
2023-03-05T09:03:32.747Z,59.19
2023-03-05T09:04:32.634Z,58.98
2023-03-05T09:05:33.324Z,58.86
2023-03-05T09:06:32.654Z,58.24
2023-03-05T09:07:32.724Z,58.14
2023-03-05T09:08:32.880Z,58.45
2023-03-05T09:09:32.764Z,57.90
2023-03-05T09:10:32.604Z,58.21
2023-03-05T09:11:32.745Z,58.03
2023-03-05T09:12:32.575Z,58.54
2023-03-05T09:13:32.705Z,58.45
2023-03-05T09:14:32.614Z,58.11
2023-03-05T09:15:32.659Z,57.46
2023-03-05T09:16:32.707Z,57.46
2023-03-05T09:17:32.664Z,57.59
2023-03-05T09:18:32.667Z,57.80
2023-03-05T09:19:32.660Z,57.39
2023-03-05T09:20:32.565Z,57.29
2023-03-05T09:21:32.444Z,57.80
2023-03-05T09:22:33.166Z,57.70
2023-03-05T09:23:32.804Z,57.18
2023-03-05T09:24:32.597Z,57.29
2023-03-05T09:25:32.386Z,57.29
2023-03-05T09:26:33.325Z,56.85
2023-03-05T09:27:33.216Z,56.13
2023-03-05T09:28:32.572Z,56.23
2023-03-05T09:29:32.493Z,56.95
2023-03-05T09:30:33.016Z,56.44
2023-03-05T09:31:32.560Z,55.82
2023-03-05T09:32:32.640Z,56.00
2023-03-05T09:33:32.417Z,55.49
2023-03-05T09:34:32.415Z,55.79
2023-03-05T09:35:32.499Z,56.00
2023-03-05T09:36:32.577Z,55.69
2023-03-05T09:37:32.483Z,55.93
2023-03-05T09:38:32.765Z,56.13
2023-03-05T09:39:32.422Z,56.26
2023-03-05T09:40:32.364Z,56.87
2023-03-05T09:41:32.982Z,56.57
2023-03-05T09:42:32.252Z,56.59
2023-03-05T09:43:32.545Z,57.10
2023-03-05T09:44:32.335Z,56.80
2023-03-05T09:45:32.302Z,57.52
2023-03-05T09:46:32.203Z,57.62
2023-03-05T09:47:32.727Z,57.54
2023-03-05T09:48:32.262Z,57.54
2023-03-05T09:49:32.159Z,57.96
2023-03-05T09:50:32.323Z,57.44
2023-03-05T09:51:32.121Z,56.90
2023-03-05T09:52:32.212Z,56.77
2023-03-05T09:53:32.473Z,56.46
2023-03-05T09:54:32.303Z,55.72
2023-03-05T09:55:32.143Z,55.08
2023-03-05T09:56:32.565Z,54.64
2023-03-05T09:57:32.416Z,53.92
2023-03-05T09:58:32.196Z,53.61
2023-03-05T09:59:32.484Z,53.79
2023-03-05T10:00:32.206Z,53.79
2023-03-05T10:01:32.181Z,53.49
2023-03-05T10:02:32.223Z,53.49
2023-03-05T10:03:32.640Z,53.28
2023-03-05T10:04:32.194Z,53.49
2023-03-05T10:05:32.425Z,53.89
2023-03-05T10:06:32.004Z,53.69
2023-03-05T10:07:32.889Z,53.79
2023-03-05T10:08:32.144Z,53.17
2023-03-05T10:09:32.124Z,53.30
2023-03-05T10:10:31.893Z,53.59
2023-03-05T10:11:32.063Z,52.74
2023-03-05T10:12:32.543Z,52.64
2023-03-05T10:13:32.074Z,52.66
2023-03-05T10:14:32.309Z,52.87
2023-03-05T10:15:32.319Z,52.76
2023-03-05T10:16:31.963Z,53.51
2023-03-05T10:17:31.965Z,53.81
2023-03-05T10:18:31.974Z,53.92
2023-03-05T10:19:31.835Z,53.33
2023-03-05T10:20:32.088Z,54.56
2023-03-05T10:21:31.925Z,54.02
2023-03-05T10:22:31.933Z,53.00
2023-03-05T10:23:31.828Z,52.56
2023-03-05T10:24:31.944Z,52.66
2023-03-05T10:25:31.829Z,52.30
2023-03-05T10:26:31.975Z,53.02
2023-03-05T10:27:31.124Z,53.41
2023-03-05T10:28:31.903Z,52.89
2023-03-05T10:29:31.863Z,53.10
2023-03-05T10:30:31.935Z,52.89
2023-03-05T10:31:31.842Z,52.66
2023-03-05T10:32:32.042Z,52.56
2023-03-05T10:33:33.555Z,53.00
2023-03-05T10:34:31.776Z,53.12
2023-03-05T10:35:32.130Z,53.20
2023-03-05T10:36:31.915Z,53.51
2023-03-05T10:37:31.788Z,53.51
2023-03-05T10:38:31.655Z,53.64
2023-03-05T10:39:32.002Z,54.05
2023-03-05T10:40:31.726Z,53.74
2023-03-05T10:41:31.786Z,53.23
2023-03-05T10:42:33.234Z,53.12
2023-03-05T10:43:32.190Z,53.74
2023-03-05T10:44:31.926Z,54.36
2023-03-05T10:45:31.777Z,53.94
2023-03-05T10:46:31.916Z,53.85
2023-03-05T10:47:32.125Z,53.53
2023-03-05T10:48:31.910Z,53.12
2023-03-05T10:49:31.517Z,53.25
2023-03-05T10:50:31.639Z,54.05
2023-03-05T10:51:31.514Z,54.49
2023-03-05T10:52:31.755Z,54.69
2023-03-05T10:53:31.424Z,54.17
2023-03-05T10:54:31.679Z,54.51
2023-03-05T10:55:31.653Z,54.92
2023-03-05T10:56:31.579Z,55.10
2023-03-05T10:57:31.547Z,54.51
2023-03-05T10:58:31.965Z,54.20
2023-03-05T10:59:31.467Z,54.92
2023-03-05T11:00:31.645Z,54.69
2023-03-05T11:01:31.574Z,52.64
2023-03-05T11:02:31.686Z,50.78
2023-03-05T11:03:31.442Z,49.94
2023-03-05T11:04:31.312Z,48.60
2023-03-05T11:05:31.602Z,48.58
2023-03-05T11:06:32.234Z,47.55
2023-03-05T11:07:31.585Z,48.47
2023-03-05T11:08:31.575Z,46.83
2023-03-05T11:09:31.984Z,47.04
2023-03-05T11:10:31.610Z,46.94
2023-03-05T11:11:31.473Z,46.62
2023-03-05T11:12:31.670Z,46.11
2023-03-05T11:13:31.461Z,46.11
2023-03-05T11:14:31.408Z,46.83
2023-03-05T11:15:31.386Z,46.42
2023-03-05T11:16:31.360Z,47.04
2023-03-05T11:17:31.430Z,47.96
2023-03-05T11:18:31.339Z,47.55
2023-03-05T11:19:31.305Z,47.66
2023-03-05T11:20:31.318Z,47.42
2023-03-05T11:21:31.219Z,47.34
2023-03-05T11:22:31.410Z,48.46
2023-03-05T11:23:31.445Z,47.74
2023-03-05T11:24:31.260Z,46.91
2023-03-05T11:25:31.132Z,47.84
2023-03-05T11:26:31.467Z,46.09
2023-03-05T11:27:31.118Z,47.02
2023-03-05T11:28:33.554Z,46.30
2023-03-05T11:29:31.219Z,45.58
2023-03-05T11:30:31.433Z,46.38
2023-03-05T11:31:31.510Z,45.99
2023-03-05T11:32:31.368Z,45.99
2023-03-05T11:33:31.337Z,46.50
2023-03-05T11:34:31.338Z,45.37
2023-03-05T11:35:31.160Z,46.50
2023-03-05T11:36:31.139Z,44.88
2023-03-05T11:37:31.819Z,45.50
2023-03-05T11:38:31.396Z,46.94
2023-03-05T11:39:31.265Z,47.55
2023-03-05T11:40:31.280Z,48.47
2023-03-05T11:41:31.638Z,49.81
2023-03-05T11:42:31.137Z,48.76
2023-03-05T11:43:31.420Z,48.86
2023-03-05T11:44:31.292Z,49.40
2023-03-05T11:45:31.229Z,49.71
2023-03-05T11:46:31.008Z,49.40
2023-03-05T11:47:31.079Z,50.43
2023-03-05T11:48:31.168Z,50.02
2023-03-05T11:49:34.095Z,50.12
2023-03-05T11:50:31.089Z,50.96
2023-03-05T11:51:31.357Z,50.68
2023-03-05T11:52:31.490Z,50.99
2023-03-05T11:53:30.989Z,50.99
2023-03-05T11:54:32.060Z,51.30
2023-03-05T11:55:30.893Z,51.20
2023-03-05T11:56:31.086Z,50.27
2023-03-05T11:57:30.924Z,51.63
2023-03-05T11:58:30.987Z,51.32
2023-03-05T11:59:30.892Z,51.63
2023-03-05T12:00:30.923Z,50.81
2023-03-05T12:01:30.864Z,51.30
2023-03-05T12:02:31.017Z,50.68
2023-03-05T12:03:30.871Z,50.89
2023-03-05T12:04:30.854Z,50.91
2023-03-05T12:05:30.905Z,51.32
2023-03-05T12:06:30.846Z,51.63
2023-03-05T12:07:30.838Z,51.12
2023-03-05T12:08:31.237Z,51.45
2023-03-05T12:09:30.800Z,51.94
2023-03-05T12:10:31.836Z,51.42
2023-03-05T12:11:30.837Z,51.53
2023-03-05T12:12:30.706Z,50.81
2023-03-05T12:13:30.778Z,50.27
2023-03-05T12:14:30.816Z,50.70
2023-03-05T12:15:30.777Z,51.42
2023-03-05T12:16:30.736Z,50.37
2023-03-05T12:17:30.732Z,51.53
2023-03-05T12:18:30.687Z,50.29
2023-03-05T12:19:30.777Z,51.01
2023-03-05T12:20:30.723Z,50.70
2023-03-05T12:21:30.796Z,50.89
2023-03-05T12:22:30.957Z,50.37
2023-03-05T12:23:30.468Z,51.07
2023-03-05T12:24:31.249Z,49.76
2023-03-05T12:25:30.747Z,50.40
2023-03-05T12:26:31.038Z,50.40
2023-03-05T12:27:31.018Z,49.98
2023-03-05T12:28:30.627Z,50.29
2023-03-05T12:29:30.482Z,50.29
2023-03-05T12:30:30.718Z,50.48
2023-03-05T12:31:30.554Z,49.26
2023-03-05T12:32:30.650Z,50.68
2023-03-05T12:33:30.848Z,49.55
2023-03-05T12:34:30.607Z,49.76
2023-03-05T12:35:30.580Z,50.04
2023-03-05T12:36:30.748Z,48.81
2023-03-05T12:37:30.497Z,49.52
2023-03-05T12:38:30.313Z,50.04
2023-03-05T12:39:30.926Z,48.60
2023-03-05T12:40:30.690Z,49.43
2023-03-05T12:41:32.905Z,48.63
2023-03-05T12:42:30.754Z,48.83
2023-03-05T12:43:30.763Z,49.55
2023-03-05T12:44:30.615Z,49.14
2023-03-05T12:45:31.052Z,49.44
2023-03-05T12:46:30.863Z,49.04
2023-03-05T12:47:30.792Z,49.14
2023-03-05T12:48:30.598Z,49.55
2023-03-05T12:49:30.549Z,49.04
2023-03-05T12:50:30.469Z,49.16
2023-03-05T12:51:30.539Z,49.29
2023-03-05T12:52:30.539Z,50.52
2023-03-05T12:53:30.609Z,50.09
2023-03-05T12:54:30.631Z,49.44
2023-03-05T12:55:31.140Z,48.85
2023-03-05T12:56:30.610Z,49.78
2023-03-05T12:57:30.211Z,49.68
2023-03-05T12:58:31.332Z,50.29
2023-03-05T12:59:30.603Z,49.06
2023-03-05T13:00:30.384Z,48.75
2023-03-05T13:01:30.849Z,48.85
2023-03-05T13:02:30.382Z,50.50
2023-03-05T13:03:30.706Z,49.26
2023-03-05T13:04:30.288Z,49.44
2023-03-05T13:05:30.828Z,49.76
2023-03-05T13:06:30.666Z,48.93
2023-03-05T13:07:29.454Z,48.52
2023-03-05T13:08:30.306Z,49.04
2023-03-05T13:09:30.225Z,49.44
2023-03-05T13:10:30.038Z,49.01
2023-03-05T13:11:30.287Z,48.52
2023-03-05T13:12:30.027Z,49.04
2023-03-05T13:13:30.359Z,49.14
2023-03-05T13:14:30.062Z,48.71
2023-03-05T13:15:30.160Z,48.72
2023-03-05T13:16:30.411Z,48.83
2023-03-05T13:17:30.250Z,48.72
2023-03-05T13:18:30.197Z,48.83
2023-03-05T13:19:30.582Z,49.04
2023-03-05T13:20:30.011Z,49.14
2023-03-05T13:21:30.593Z,48.72
2023-03-05T13:22:30.059Z,49.44
2023-03-05T13:23:30.079Z,48.93
2023-03-05T13:24:30.049Z,48.42
2023-03-05T13:25:30.038Z,49.04
2023-03-05T13:26:30.312Z,49.24
2023-03-05T13:27:30.107Z,49.35
2023-03-05T13:28:30.612Z,48.39
2023-03-05T13:29:30.190Z,47.70
2023-03-05T13:30:29.213Z,48.93
2023-03-05T13:31:30.189Z,47.70
2023-03-05T13:32:30.355Z,48.72
2023-03-05T13:33:30.061Z,49.86
2023-03-05T13:34:41.089Z,48.11
2023-03-05T13:35:30.286Z,48.83
2023-03-05T13:36:29.957Z,49.44
2023-03-05T13:37:30.230Z,48.52
2023-03-05T13:38:29.959Z,47.80
2023-03-05T13:39:36.415Z,48.52
2023-03-05T13:40:30.115Z,48.42
2023-03-05T13:41:30.242Z,48.63
2023-03-05T13:42:29.961Z,49.04
2023-03-05T13:43:30.455Z,48.42
2023-03-05T13:44:29.686Z,49.04
2023-03-05T13:45:30.306Z,48.63
2023-03-05T13:46:29.911Z,48.21
2023-03-05T13:47:30.467Z,48.24
2023-03-05T13:48:29.027Z,49.37
2023-03-05T13:49:30.453Z,48.24
2023-03-05T13:50:29.880Z,50.19
2023-03-05T13:51:30.577Z,48.44
2023-03-05T13:52:30.291Z,49.37
2023-03-05T13:53:29.915Z,48.57
2023-03-05T13:54:29.689Z,49.37
2023-03-05T13:55:29.756Z,48.85
2023-03-05T13:56:29.676Z,49.47
2023-03-05T13:57:29.496Z,49.57
2023-03-05T13:58:30.306Z,49.98
2023-03-05T13:59:29.625Z,48.44
2023-03-05T14:00:30.285Z,49.37
2023-03-05T14:01:29.786Z,48.75
2023-03-05T14:02:31.824Z,49.26
2023-03-05T14:03:30.341Z,49.16
2023-03-05T14:04:30.311Z,49.47
2023-03-05T14:05:29.845Z,48.83
2023-03-05T14:06:30.235Z,48.21
2023-03-05T14:07:29.584Z,48.13
2023-03-05T14:08:29.725Z,48.96
2023-03-05T14:09:29.799Z,49.06
2023-03-05T14:10:29.746Z,48.96
2023-03-05T14:11:29.859Z,49.88
2023-03-05T14:12:28.776Z,48.54
2023-03-05T14:13:29.730Z,47.92
2023-03-05T14:14:29.605Z,48.67
2023-03-05T14:15:29.547Z,48.67
2023-03-05T14:16:29.390Z,48.88
2023-03-05T14:17:29.539Z,48.80
2023-03-05T14:18:29.377Z,49.02
2023-03-05T14:19:29.685Z,49.64
2023-03-05T14:20:29.411Z,49.21
2023-03-05T14:21:29.768Z,49.54
2023-03-05T14:22:29.398Z,50.78
2023-03-05T14:23:29.529Z,50.44
2023-03-05T14:24:29.386Z,50.34
2023-03-05T14:25:29.031Z,49.93
2023-03-05T14:26:29.699Z,49.49
2023-03-05T14:27:29.497Z,49.93
2023-03-05T14:28:28.672Z,50.21
2023-03-05T14:29:29.210Z,49.90
2023-03-05T14:30:28.701Z,49.60
2023-03-05T14:31:29.262Z,50.11
2023-03-05T14:32:29.474Z,49.39
2023-03-05T14:33:29.177Z,49.62
2023-03-05T14:34:28.582Z,50.85
2023-03-05T14:35:29.432Z,50.73
2023-03-05T14:36:29.338Z,49.39
2023-03-05T14:37:29.258Z,49.49
2023-03-05T14:38:29.318Z,50.40
2023-03-05T14:39:29.228Z,48.75
2023-03-05T14:40:29.367Z,49.37
2023-03-05T14:41:29.260Z,48.85
2023-03-05T14:42:29.287Z,48.77
2023-03-05T14:43:29.248Z,48.98
2023-03-05T14:44:29.236Z,49.18
2023-03-05T14:45:29.194Z,49.70
2023-03-05T14:46:29.192Z,48.98
2023-03-05T14:47:29.727Z,49.80
2023-03-05T14:48:29.040Z,48.98
2023-03-05T14:49:29.250Z,48.57
2023-03-05T14:50:29.191Z,50.01